Time;durP1;ratioP1;P1;durP2;ratioP2;P2;SDS_P1;SDS_P2;PMS_P1;PMS_P2;Temp;Humidity;BMP_temperature;BMP_pressure;BME280_temperature;BME280_humidity;BME280_pressure;Samples;Min_cycle;Max_cycle;Signal;HPM_P1;HPM_P2
2022/01/16 00:00:49;;;;;;;45.97;14.33;;;4.80;99.90;;;;;;5005736;28;20235;-88
2022/01/16 00:06:02;;;;;;;39.90;15.10;;;4.70;99.90;;;;;;5009421;28;20202;-87
2022/01/16 00:08:29;;;;;;;40.47;15.23;;;4.40;99.90;;;;;;5024716;28;20217;-87
2022/01/16 00:10:56;;;;;;;48.70;16.13;;;3.80;99.90;;;;;;5005832;28;20217;-88
2022/01/16 00:13:23;;;;;;;49.87;17.20;;;;;;;;;;5005494;28;20245;-88
2022/01/16 00:15:50;;;;;;;54.17;16.80;;;3.90;99.90;;;;;;5005830;28;20242;-88
2022/01/16 00:18:22;;;;;;;40.43;14.27;;;3.90;99.90;;;;;;5020817;28;20210;-88
2022/01/16 00:20:49;;;;;;;43.50;12.90;;;3.90;99.90;;;;;;5021384;28;20222;-88
2022/01/16 00:23:24;;;;;;;42.10;13.50;;;6.40;99.90;;;;;;5006166;28;20225;-89
2022/01/16 00:25:52;;;;;;;37.00;12.47;;;4.00;99.90;;;;;;5010495;28;20249;-88
2022/01/16 00:28:19;;;;;;;39.33;14.00;;;3.90;99.90;;;;;;5012897;28;20207;-87
2022/01/16 00:30:53;;;;;;;40.13;13.77;;;4.40;99.90;;;;;;5021336;28;20206;-87
2022/01/16 00:33:20;;;;;;;49.20;15.77;;;3.90;99.90;;;;;;5001758;28;20237;-88
2022/01/16 00:35:47;;;;;;;40.43;12.63;;;4.00;99.90;;;;;;5021565;28;20203;-88
2022/01/16 00:38:14;;;;;;;44.33;14.87;;;4.00;99.90;;;;;;5010987;28;20218;-88
2022/01/16 00:40:43;;;;;;;50.73;17.13;;;4.70;99.90;;;;;;5011149;28;20230;-88
2022/01/16 00:43:09;;;;;;;44.17;15.80;;;3.90;99.90;;;;;;4995481;28;20946;-88
2022/01/16 00:45:36;;;;;;;52.13;17.47;;;3.90;99.90;;;;;;4995600;28;20693;-87
2022/01/16 00:48:04;;;;;;;43.03;15.23;;;3.90;99.90;;;;;;4994918;28;20213;-87
2022/01/16 00:50:33;;;;;;;46.83;14.70;;;3.90;99.90;;;;;;4999374;28;20633;-87
2022/01/16 00:53:00;;;;;;;50.70;17.17;;;4.00;99.90;;;;;;5010914;28;20239;-86
2022/01/16 00:55:28;;;;;;;55.43;17.57;;;4.00;99.90;;;;;;4993765;28;20217;-86
2022/01/16 00:57:56;;;;;;;52.57;16.63;;;4.00;99.90;;;;;;4993112;28;20613;-86
2022/01/16 01:00:23;;;;;;;46.40;15.53;;;4.00;99.90;;;;;;4995019;28;20245;-87
2022/01/16 01:02:53;;;;;;;63.10;20.27;;;4.30;99.90;;;;;;4995491;28;20222;-87
2022/01/16 01:05:20;;;;;;;55.30;17.57;;;4.00;99.90;;;;;;4992571;28;20206;-87
2022/01/16 01:07:46;;;;;;;55.87;18.10;;;4.00;99.90;;;;;;5010873;28;20208;-86
2022/01/16 01:10:13;;;;;;;57.83;18.83;;;4.00;99.90;;;;;;5012670;28;20237;-87
2022/01/16 01:12:52;;;;;;;55.73;18.23;;;4.00;99.90;;;;;;5008901;28;20202;-87
2022/01/16 01:15:25;;;;;;;58.13;17.87;;;4.00;99.90;;;;;;4999953;28;20217;-86
2022/01/16 01:17:53;;;;;;;62.33;20.47;;;4.00;99.90;;;;;;4999655;28;20210;-87
2022/01/16 01:20:21;;;;;;;49.80;16.43;;;4.00;99.90;;;;;;4995979;28;20207;-86
2022/01/16 01:22:50;;;;;;;64.20;20.33;;;4.10;99.90;;;;;;5010708;28;20225;-87
2022/01/16 01:25:17;;;;;;;59.20;20.70;;;4.10;99.90;;;;;;4992609;28;20332;-86
2022/01/16 01:27:45;;;;;;;61.90;20.03;;;4.10;99.90;;;;;;4993275;28;20214;-87
2022/01/16 01:30:15;;;;;;;59.07;19.60;;;4.10;99.90;;;;;;4995782;28;20236;-87
2022/01/16 01:32:45;;;;;;;52.93;19.03;;;4.10;99.90;;;;;;5028730;28;20261;-87
2022/01/16 01:35:15;;;;;;;52.57;18.93;;;4.10;99.90;;;;;;5008091;28;20211;-87
2022/01/16 01:37:43;;;;;;;49.80;17.83;;;4.10;99.90;;;;;;5000102;28;20210;-87
2022/01/16 01:40:14;;;;;;;52.63;16.77;;;4.10;99.90;;;;;;4992620;28;20211;-87
2022/01/16 01:42:47;;;;;;;56.87;18.97;;;4.10;99.90;;;;;;4992287;28;20284;-86
2022/01/16 01:51:10;;;;;;;58.10;19.53;;;4.00;99.90;;;;;;4992898;28;20344;-86
2022/01/16 01:53:38;;;;;;;53.60;18.33;;;4.00;99.90;;;;;;4992402;28;20230;-86
2022/01/16 01:56:06;;;;;;;49.37;17.00;;;4.00;99.90;;;;;;4993116;28;20285;-87
2022/01/16 01:58:33;;;;;;;58.23;19.77;;;4.00;99.90;;;;;;4992727;28;20297;-86
2022/01/16 02:01:03;;;;;;;53.83;18.63;;;4.00;99.90;;;;;;4993274;28;20285;-87
2022/01/16 02:03:42;;;;;;;57.07;19.30;;;4.00;99.90;;;;;;5011156;28;20223;-86
2022/01/16 02:06:09;;;;;;;52.13;15.90;;;4.00;99.90;;;;;;5008988;28;20214;-86
2022/01/16 02:08:37;;;;;;;55.83;20.27;;;4.00;99.90;;;;;;5000751;28;20300;-88
2022/01/16 02:11:04;;;;;;;50.67;18.13;;;4.10;99.90;;;;;;5002863;28;20210;-86
2022/01/16 02:13:34;;;;;;;61.80;20.23;;;4.10;99.90;;;;;;5015202;28;20233;-87
2022/01/16 02:30:42;;;;;;;61.73;20.40;;;4.20;99.90;;;;;;4993609;28;20214;-87
2022/01/16 02:33:24;;;;;;;61.27;21.67;;;4.20;99.90;;;;;;4991382;28;20245;-87
2022/01/16 02:35:55;;;;;;;59.70;19.80;;;4.20;99.90;;;;;;4992540;28;20213;-86
2022/01/16 02:38:22;;;;;;;62.57;22.23;;;4.30;99.90;;;;;;5026662;28;20188;-87
2022/01/16 02:40:54;;;;;;;68.67;23.60;;;4.30;99.90;;;;;;5014622;28;20199;-88
2022/01/16 02:43:29;;;;;;;63.90;19.83;;;4.30;99.90;;;;;;5014014;28;20215;-88
2022/01/16 02:46:35;;;;;;;67.50;21.37;;;5.10;99.90;;;;;;4994242;28;20198;-87
2022/01/16 02:48:48;;;;;;;87.20;24.03;;;4.30;99.90;;;;;;5002329;28;20321;-86
2022/01/16 02:51:17;;;;;;;77.63;25.03;;;4.30;99.90;;;;;;4984522;28;20230;-87
2022/01/16 02:53:44;;;;;;;70.00;22.63;;;4.20;99.90;;;;;;5009052;28;20235;-86
2022/01/16 02:56:13;;;;;;;78.27;25.43;;;4.20;99.90;;;;;;4990867;28;20245;-86
2022/01/16 02:58:40;;;;;;;70.90;22.93;;;4.10;99.90;;;;;;4991764;28;20244;-87
2022/01/16 03:01:07;;;;;;;76.70;25.03;;;4.20;99.90;;;;;;5007724;28;20210;-87
2022/01/16 03:03:35;;;;;;;63.53;22.07;;;4.20;99.90;;;;;;4993391;28;20241;-86
2022/01/16 03:06:02;;;;;;;73.77;22.77;;;4.20;99.90;;;;;;4995412;28;20206;-86
2022/01/16 03:08:29;;;;;;;70.43;20.27;;;4.20;99.90;;;;;;4994580;28;20215;-87
2022/01/16 03:11:11;;;;;;;69.33;20.70;;;4.20;99.90;;;;;;4990088;28;20217;-86
2022/01/16 03:13:43;;;;;;;61.63;20.07;;;4.20;99.90;;;;;;5007722;28;20230;-87
2022/01/16 03:16:10;;;;;;;53.17;17.73;;;4.10;99.90;;;;;;5006862;28;20607;-86
2022/01/16 03:24:17;;;;;;;53.97;16.80;;;4.00;99.90;;;;;;4956924;28;20905;-86
2022/01/16 03:26:44;;;;;;;70.90;21.57;;;3.90;99.90;;;;;;4993534;28;20214;-86
2022/01/16 03:29:12;;;;;;;61.80;19.63;;;3.90;99.90;;;;;;5004823;28;20207;-87
2022/01/16 03:31:40;;;;;;;72.00;22.37;;;3.90;99.90;;;;;;4988748;28;20219;-88
2022/01/16 03:34:08;;;;;;;62.73;21.93;;;3.90;99.90;;;;;;4982346;28;20243;-86
2022/01/16 03:36:36;;;;;;;73.50;23.10;;;3.90;99.90;;;;;;4993348;28;20206;-86
2022/01/16 03:39:03;;;;;;;63.17;21.43;;;3.90;99.90;;;;;;4995890;28;20265;-87
2022/01/16 03:41:30;;;;;;;58.80;18.80;;;3.90;99.90;;;;;;5011680;28;20280;-87
2022/01/16 03:44:01;;;;;;;70.43;18.87;;;3.90;99.90;;;;;;4994691;28;20238;-87
2022/01/16 03:46:34;;;;;;;73.63;23.93;;;3.90;99.90;;;;;;5006356;28;20289;-87
2022/01/16 03:49:05;;;;;;;70.93;23.10;;;3.80;99.90;;;;;;5011013;28;20231;-87
2022/01/16 03:51:32;;;;;;;71.43;22.97;;;3.80;99.90;;;;;;5010689;28;20682;-87
2022/01/16 03:53:59;;;;;;;65.10;21.23;;;3.80;99.90;;;;;;4994779;28;20226;-87
2022/01/16 03:56:26;;;;;;;62.40;21.33;;;3.80;99.90;;;;;;4994488;28;20210;-87
2022/01/16 03:58:53;;;;;;;62.47;18.97;;;3.80;99.90;;;;;;5011375;28;20211;-87
2022/01/16 04:01:20;;;;;;;53.17;18.03;;;3.80;99.90;;;;;;4995674;28;20213;-87
2022/01/16 04:03:49;;;;;;;66.97;21.77;;;3.70;99.90;;;;;;4991527;28;20250;-87
2022/01/16 04:06:16;;;;;;;63.33;21.90;;;3.70;99.90;;;;;;4993872;28;20209;-87
2022/01/16 04:08:42;;;;;;;62.10;20.80;;;3.70;99.90;;;;;;5010869;28;20206;-87
2022/01/16 04:11:09;;;;;;;69.40;23.17;;;4.10;99.90;;;;;;5012050;28;20218;-87
2022/01/16 04:13:40;;;;;;;67.40;22.50;;;3.60;99.90;;;;;;4994940;28;20260;-87
2022/01/16 04:16:07;;;;;;;66.17;21.57;;;3.60;99.90;;;;;;4985201;28;20708;-88
2022/01/16 04:18:34;;;;;;;64.17;22.33;;;3.60;99.90;;;;;;4990977;28;20207;-87
2022/01/16 04:21:02;;;;;;;74.03;23.43;;;4.50;99.90;;;;;;4992939;28;20222;-87
2022/01/16 04:23:29;;;;;;;69.47;24.10;;;5.30;99.90;;;;;;4992475;28;20238;-87
2022/01/16 04:25:56;;;;;;;65.43;22.47;;;3.60;99.90;;;;;;4993569;28;20214;-88
2022/01/16 04:28:24;;;;;;;63.37;20.03;;;3.60;99.90;;;;;;4992894;28;20206;-87
2022/01/16 04:30:51;;;;;;;64.70;19.57;;;3.60;99.90;;;;;;5010706;28;20223;-87
2022/01/16 04:33:18;;;;;;;83.73;26.87;;;3.60;99.90;;;;;;4993012;28;20863;-87
2022/01/16 04:35:45;;;;;;;72.80;24.13;;;3.70;99.90;;;;;;5016299;28;20206;-87
2022/01/16 04:38:14;;;;;;;69.87;25.03;;;3.50;99.90;;;;;;5030251;28;20199;-88
2022/01/16 04:40:44;;;;;;;83.50;27.90;;;3.60;99.90;;;;;;4994083;28;20219;-87
2022/01/16 04:45:59;;;;;;;88.33;27.57;;;3.60;99.90;;;;;;4993232;28;20570;-87
2022/01/16 04:48:27;;;;;;;85.40;28.17;;;3.70;99.90;;;;;;5005004;28;20548;-87
2022/01/16 04:50:54;;;;;;;83.80;27.40;;;3.70;99.90;;;;;;5015107;28;20215;-87
2022/01/16 04:53:23;;;;;;;74.53;23.80;;;3.70;99.90;;;;;;4992427;28;20285;-87
2022/01/16 04:55:50;;;;;;;80.20;25.20;;;3.70;99.90;;;;;;5010018;28;20261;-88
2022/01/16 04:58:18;;;;;;;89.47;28.20;;;3.70;99.90;;;;;;5008620;28;20262;-87
2022/01/16 05:00:45;;;;;;;95.47;30.87;;;3.90;99.90;;;;;;4995106;28;20217;-88
2022/01/16 05:03:12;;;;;;;80.53;25.27;;;3.80;99.90;;;;;;4991617;28;20242;-88
2022/01/16 05:05:39;;;;;;;92.07;30.23;;;3.80;99.90;;;;;;5010002;28;20273;-87
2022/01/16 05:08:06;;;;;;;89.37;28.27;;;4.00;99.90;;;;;;4998913;28;20254;-87
2022/01/16 05:10:35;;;;;;;95.83;29.20;;;4.30;99.90;;;;;;4994636;28;20262;-87
2022/01/16 05:13:27;;;;;;;95.87;28.27;;;4.00;99.90;;;;;;4992998;28;20300;-87
2022/01/16 05:18:42;;;;;;;93.77;29.73;;;4.00;99.90;;;;;;5009839;28;20206;-87
2022/01/16 05:21:10;;;;;;;96.33;30.07;;;4.00;99.90;;;;;;4993724;28;20214;-88
2022/01/16 05:23:40;;;;;;;90.83;29.97;;;4.00;99.90;;;;;;5009296;28;20312;-87
2022/01/16 05:26:08;;;;;;;95.57;29.87;;;4.00;99.90;;;;;;4994380;28;20206;-87
2022/01/16 05:28:36;;;;;;;93.93;29.33;;;4.00;99.90;;;;;;4991830;28;20218;-87
2022/01/16 05:31:04;;;;;;;88.73;26.77;;;4.00;99.90;;;;;;5002977;28;20670;-87
2022/01/16 05:33:31;;;;;;;76.17;28.07;;;4.00;99.90;;;;;;5012023;28;20239;-87
2022/01/16 05:35:58;;;;;;;86.37;28.33;;;4.10;99.90;;;;;;4995418;28;20287;-87
2022/01/16 05:38:25;;;;;;;84.37;28.83;;;4.80;99.90;;;;;;5012169;28;20279;-87
2022/01/16 05:40:53;;;;;;;100.70;30.17;;;4.20;99.90;;;;;;5011897;28;20221;-87
2022/01/16 05:43:22;;;;;;;89.00;29.43;;;4.20;99.90;;;;;;5013606;28;20234;-87
2022/01/16 05:45:50;;;;;;;84.47;27.10;;;4.20;99.90;;;;;;5008212;28;20210;-86
2022/01/16 05:48:17;;;;;;;85.03;29.67;;;;;;;;;;4995456;28;20202;-87
2022/01/16 05:50:44;;;;;;;77.33;26.97;;;4.30;99.90;;;;;;4991539;28;20211;-87
2022/01/16 05:53:11;;;;;;;81.80;27.80;;;4.30;99.90;;;;;;4995029;28;20249;-87
2022/01/16 05:55:38;;;;;;;73.13;27.93;;;4.30;99.90;;;;;;5001996;28;20206;-86
2022/01/16 05:58:06;;;;;;;92.73;29.27;;;4.30;99.90;;;;;;5003659;28;20686;-86
2022/01/16 06:00:36;;;;;;;90.40;30.67;;;4.30;99.90;;;;;;4990518;28;20238;-86
2022/01/16 06:03:03;;;;;;;90.93;29.20;;;4.30;99.90;;;;;;4995763;28;20230;-87
2022/01/16 06:05:30;;;;;;;88.40;26.50;;;4.40;99.90;;;;;;4993823;28;20210;-86
2022/01/16 06:07:59;;;;;;;82.53;27.77;;;4.40;99.90;;;;;;5004743;28;20206;-87
2022/01/16 06:10:27;;;;;;;83.77;29.77;;;4.40;99.90;;;;;;4991547;28;20211;-87
2022/01/16 06:12:55;;;;;;;77.17;23.70;;;;;;;;;;4991346;28;20705;-88
2022/01/16 06:15:23;;;;;;;73.13;26.77;;;4.40;99.90;;;;;;4994153;28;20222;-89
2022/01/16 06:17:52;;;;;;;70.67;24.67;;;;;;;;;;5007587;28;20215;-88
2022/01/16 06:20:19;;;;;;;83.53;29.30;;;;;;;;;;5008217;28;20203;-88
2022/01/16 06:22:47;;;;;;;88.20;29.33;;;4.40;99.90;;;;;;4993020;28;20668;-88
2022/01/16 06:25:16;;;;;;;84.40;31.47;;;4.40;99.90;;;;;;4990621;28;20219;-88
2022/01/16 06:27:43;;;;;;;75.67;25.07;;;4.40;99.90;;;;;;5008413;28;20210;-88
2022/01/16 06:30:12;;;;;;;98.33;30.90;;;4.40;99.90;;;;;;5009825;28;20210;-88
2022/01/16 06:32:39;;;;;;;86.93;30.57;;;4.40;99.90;;;;;;5014217;28;20208;-88
2022/01/16 06:35:09;;;;;;;85.70;30.47;;;4.50;99.90;;;;;;4987169;28;20230;-87
2022/01/16 06:37:37;;;;;;;81.70;29.43;;;4.50;99.90;;;;;;4995006;28;20217;-88
2022/01/16 06:40:05;;;;;;;85.20;29.40;;;4.40;99.90;;;;;;4990882;28;20606;-88
2022/01/16 06:42:32;;;;;;;72.53;23.33;;;4.50;99.90;;;;;;5010710;28;20218;-88
2022/01/16 06:45:00;;;;;;;81.73;30.23;;;;;;;;;;4992198;28;20667;-88
2022/01/16 06:47:27;;;;;;;79.97;28.70;;;4.50;99.90;;;;;;4990764;28;20807;-88
2022/01/16 06:49:54;;;;;;;73.80;26.93;;;4.50;99.90;;;;;;5004883;28;20226;-88
2022/01/16 06:52:22;;;;;;;84.47;30.37;;;4.50;99.90;;;;;;4993766;28;20202;-88
2022/01/16 06:54:49;;;;;;;82.77;30.23;;;4.50;99.90;;;;;;5000469;28;20252;-88
2022/01/16 06:57:16;;;;;;;75.17;25.27;;;7.70;99.90;;;;;;4989608;28;20217;-88
2022/01/16 06:59:45;;;;;;;87.90;30.67;;;4.60;99.90;;;;;;5003367;28;20206;-88
2022/01/16 07:02:13;;;;;;;94.10;32.57;;;;;;;;;;4999590;28;20215;-88
2022/01/16 07:04:40;;;;;;;87.33;30.67;;;4.60;99.90;;;;;;4993071;28;20281;-88
2022/01/16 07:07:07;;;;;;;85.80;30.70;;;4.60;99.90;;;;;;4982270;28;20784;-88
2022/01/16 07:09:36;;;;;;;85.83;31.57;;;4.60;99.90;;;;;;5001515;28;20215;-88
2022/01/16 07:12:03;;;;;;;82.03;30.37;;;;;;;;;;4997599;28;20217;-88
2022/01/16 07:14:30;;;;;;;86.83;31.20;;;;;;;;;;5003703;28;20238;-88
2022/01/16 07:16:58;;;;;;;82.13;28.13;;;;;;;;;;5013124;28;20230;-88
2022/01/16 07:19:25;;;;;;;77.50;27.87;;;;;;;;;;4995831;28;20240;-87
2022/01/16 07:21:54;;;;;;;79.00;27.87;;;;;;;;;;4995792;28;20214;-87
2022/01/16 07:24:21;;;;;;;78.30;30.60;;;4.70;99.90;;;;;;4992825;28;20317;-87
2022/01/16 07:26:49;;;;;;;77.70;22.50;;;4.80;99.90;;;;;;4990829;28;20221;-87
2022/01/16 07:29:17;;;;;;;85.93;30.60;;;4.80;99.90;;;;;;4991452;28;20704;-87
2022/01/16 07:31:44;;;;;;;112.63;35.80;;;;;;;;;;4995232;28;20617;-88
2022/01/16 07:34:12;;;;;;;79.80;31.67;;;4.80;99.90;;;;;;5009424;28;20816;-88
2022/01/16 07:36:39;;;;;;;86.43;31.73;;;4.80;99.90;;;;;;4992383;28;20214;-88
2022/01/16 07:39:06;;;;;;;85.03;32.10;;;4.80;99.90;;;;;;5000553;28;20221;-88
2022/01/16 07:41:33;;;;;;;77.30;28.30;;;4.70;99.90;;;;;;5025760;28;20219;-88
2022/01/16 07:44:11;;;;;;;81.03;30.00;;;4.80;99.90;;;;;;5004404;28;20234;-89
2022/01/16 07:46:38;;;;;;;79.93;30.73;;;4.80;99.90;;;;;;5007636;28;20717;-88
2022/01/16 07:49:06;;;;;;;87.20;32.03;;;4.80;99.90;;;;;;4991466;28;20718;-89
2022/01/16 07:51:34;;;;;;;74.07;28.30;;;4.90;99.90;;;;;;5000079;28;20214;-89
2022/01/16 07:54:01;;;;;;;80.83;25.93;;;4.80;99.90;;;;;;4990971;28;20234;-88
2022/01/16 07:56:28;;;;;;;82.57;30.73;;;;;;;;;;4992152;28;20225;-88
2022/01/16 07:58:56;;;;;;;87.73;33.37;;;;;;;;;;4990143;28;20199;-89
2022/01/16 08:01:24;;;;;;;86.57;30.57;;;4.90;99.90;;;;;;4990951;28;20211;-89
2022/01/16 08:03:51;;;;;;;89.93;31.97;;;5.00;99.90;;;;;;4986496;28;20230;-89
2022/01/16 08:06:18;;;;;;;88.17;30.63;;;5.00;99.90;;;;;;4991978;28;20215;-88
2022/01/16 08:08:45;;;;;;;70.53;26.97;;;5.70;99.90;;;;;;4993986;28;20215;-89
2022/01/16 08:11:13;;;;;;;82.43;33.23;;;5.00;99.90;;;;;;4992483;28;20629;-88
2022/01/16 08:13:40;;;;;;;86.47;32.33;;;5.10;99.90;;;;;;5007754;28;20250;-88
2022/01/16 08:16:07;;;;;;;86.77;32.23;;;5.10;99.90;;;;;;4992690;28;20214;-91
2022/01/16 08:18:36;;;;;;;74.87;30.20;;;5.10;99.90;;;;;;4994555;28;20207;-93
2022/01/16 08:21:04;;;;;;;75.13;30.43;;;5.10;99.90;;;;;;4994179;28;20207;-92
2022/01/16 08:23:34;;;;;;;85.37;32.53;;;5.10;99.90;;;;;;4998403;28;20242;-92
2022/01/16 08:26:05;;;;;;;70.63;30.57;;;5.20;99.90;;;;;;4997954;28;20202;-92
2022/01/16 08:28:32;;;;;;;63.10;27.17;;;5.20;99.90;;;;;;4997601;28;20264;-91
2022/01/16 08:31:00;;;;;;;88.07;32.47;;;;;;;;;;4999098;28;20210;-88
2022/01/16 08:33:27;;;;;;;80.03;32.33;;;;;;;;;;4993786;28;20223;-87
2022/01/16 08:35:56;;;;;;;91.07;34.07;;;5.40;99.90;;;;;;4991602;28;20250;-88
2022/01/16 08:38:26;;;;;;;81.53;31.77;;;5.40;99.90;;;;;;5013151;28;20211;-88
2022/01/16 08:40:53;;;;;;;90.33;34.23;;;;;;;;;;4994224;28;20215;-87
2022/01/16 08:43:21;;;;;;;83.13;32.13;;;;;;;;;;5001839;28;20230;-88
2022/01/16 08:45:49;;;;;;;81.50;32.80;;;5.50;99.90;;;;;;4986093;28;20694;-88
2022/01/16 08:48:16;;;;;;;86.03;33.80;;;5.60;99.90;;;;;;4996174;28;20285;-89
2022/01/16 08:50:43;;;;;;;90.80;33.20;;;5.60;99.90;;;;;;4993754;28;20214;-89
2022/01/16 08:53:11;;;;;;;86.60;30.77;;;9.50;99.90;;;;;;5012196;28;20720;-89
2022/01/16 08:55:39;;;;;;;83.37;31.67;;;5.60;99.90;;;;;;4994007;28;20202;-88
2022/01/16 08:58:06;;;;;;;85.17;32.60;;;5.70;99.90;;;;;;4994322;28;20202;-88
2022/01/16 09:00:34;;;;;;;81.53;31.83;;;5.70;99.90;;;;;;4999096;28;20198;-87
2022/01/16 09:03:01;;;;;;;71.93;28.60;;;5.70;99.90;;;;;;5019824;28;20375;-88
2022/01/16 09:05:28;;;;;;;90.43;32.50;;;;;;;;;;5020594;28;20276;-87
2022/01/16 09:07:55;;;;;;;86.40;30.83;;;5.80;99.90;;;;;;5014576;28;20210;-87
2022/01/16 09:10:25;;;;;;;88.63;33.43;;;5.80;99.90;;;;;;5019227;28;20214;-87
2022/01/16 09:12:53;;;;;;;80.33;31.23;;;5.90;99.90;;;;;;5014481;28;20218;-89
2022/01/16 09:15:22;;;;;;;67.73;23.40;;;5.90;99.90;;;;;;5005704;28;20222;-89
2022/01/16 09:17:49;;;;;;;73.33;29.53;;;6.30;99.90;;;;;;4996107;28;20222;-88
2022/01/16 09:20:16;;;;;;;74.53;30.33;;;6.20;99.90;;;;;;5007117;28;20233;-88
2022/01/16 09:22:45;;;;;;;72.57;27.50;;;7.00;99.90;;;;;;4997704;28;20301;-89
2022/01/16 09:25:13;;;;;;;83.20;31.27;;;5.90;99.90;;;;;;4992162;28;20656;-89
2022/01/16 09:27:44;;;;;;;80.50;29.90;;;6.00;99.90;;;;;;5002919;28;20932;-89
2022/01/16 09:30:12;;;;;;;77.53;28.77;;;6.00;99.90;;;;;;5013639;28;20590;-89
2022/01/16 09:32:40;;;;;;;83.37;27.83;;;6.00;99.90;;;;;;4994470;28;20215;-88
2022/01/16 09:35:10;;;;;;;80.23;30.17;;;6.10;99.90;;;;;;4991052;28;20270;-89
2022/01/16 09:37:37;;;;;;;83.47;29.83;;;6.10;99.90;;;;;;4995024;28;20222;-89
2022/01/16 09:40:06;;;;;;;83.27;31.67;;;6.20;99.90;;;;;;4992467;28;20329;-87
2022/01/16 09:42:33;;;;;;;84.70;31.27;;;6.20;99.90;;;;;;4992823;28;20214;-88
2022/01/16 09:45:02;;;;;;;79.07;28.87;;;6.30;99.90;;;;;;5008717;28;20230;-88
2022/01/16 09:47:29;;;;;;;69.23;28.63;;;6.40;99.90;;;;;;5010017;28;20307;-89
2022/01/16 09:49:56;;;;;;;74.37;29.37;;;6.50;99.90;;;;;;5012445;28;20211;-88
2022/01/16 09:52:23;;;;;;;76.20;29.63;;;6.50;99.90;;;;;;4990431;28;20262;-89
2022/01/16 09:54:50;;;;;;;67.87;26.70;;;6.60;99.90;;;;;;4988160;28;20596;-87
2022/01/16 09:57:18;;;;;;;85.27;29.47;;;6.60;99.90;;;;;;5007184;28;20241;-88
2022/01/16 09:59:46;;;;;;;76.47;28.00;;;;;;;;;;4992815;28;20715;-88
2022/01/16 10:02:14;;;;;;;76.50;27.37;;;6.70;99.90;;;;;;4990632;28;20220;-88
2022/01/16 10:04:43;;;;;;;84.57;29.73;;;6.70;99.90;;;;;;4989782;28;20920;-88
2022/01/16 10:07:12;;;;;;;71.20;26.07;;;6.70;99.90;;;;;;5004107;28;20280;-88
2022/01/16 10:09:40;;;;;;;83.30;29.77;;;7.50;99.90;;;;;;5007537;28;20224;-88
2022/01/16 10:12:16;;;;;;;63.73;22.67;;;7.60;99.90;;;;;;5005978;28;20651;-87
2022/01/16 10:14:49;;;;;;;77.93;29.13;;;6.60;99.90;;;;;;4994778;28;20655;-87
2022/01/16 10:17:19;;;;;;;90.30;29.83;;;8.20;99.90;;;;;;4992798;28;20210;-88
2022/01/16 10:19:57;;;;;;;78.03;27.00;;;6.70;99.90;;;;;;4989676;28;20206;-89
2022/01/16 10:22:26;;;;;;;85.97;28.47;;;6.60;99.90;;;;;;5000741;28;20224;-89
2022/01/16 10:24:53;;;;;;;73.87;25.40;;;6.60;99.90;;;;;;5006098;28;20277;-89
2022/01/16 10:27:21;;;;;;;83.73;29.00;;;6.60;99.90;;;;;;4992555;28;20218;-87
2022/01/16 10:29:51;;;;;;;84.90;30.47;;;7.40;99.90;;;;;;4990429;28;20266;-88
2022/01/16 10:32:22;;;;;;;87.90;33.23;;;6.70;99.90;;;;;;4990099;28;20240;-89
2022/01/16 10:34:52;;;;;;;98.77;36.57;;;6.60;99.90;;;;;;5008951;28;20258;-88
2022/01/16 10:37:26;;;;;;;89.17;30.67;;;7.70;99.90;;;;;;4992095;28;20215;-88
2022/01/16 10:40:01;;;;;;;87.73;32.07;;;6.70;99.90;;;;;;5009605;28;20210;-87
2022/01/16 10:42:30;;;;;;;86.57;32.13;;;6.70;99.90;;;;;;4996082;28;20213;-89
2022/01/16 10:45:00;;;;;;;83.90;30.00;;;6.70;99.90;;;;;;5008205;28;20229;-89
2022/01/16 10:47:35;;;;;;;94.60;32.93;;;6.70;99.90;;;;;;4993321;28;20217;-87
2022/01/16 10:50:10;;;;;;;86.47;33.13;;;6.70;99.90;;;;;;5015798;28;20219;-87
2022/01/16 10:52:59;;;;;;;59.63;22.50;;;6.70;99.90;;;;;;5025809;28;20207;-86
2022/01/16 10:55:36;;;;;;;66.67;24.80;;;6.60;99.90;;;;;;5014716;28;20237;-87
2022/01/16 10:58:06;;;;;;;71.93;28.03;;;6.60;99.90;;;;;;5012310;28;20233;-87
2022/01/16 11:00:35;;;;;;;72.17;27.90;;;6.60;99.90;;;;;;4995659;28;20219;-87
2022/01/16 11:03:09;;;;;;;76.53;29.23;;;6.70;99.90;;;;;;5002469;28;20222;-87
2022/01/16 11:05:38;;;;;;;80.40;30.33;;;6.80;99.90;;;;;;4994017;28;20249;-88
2022/01/16 11:08:09;;;;;;;88.17;28.07;;;7.10;99.90;;;;;;5010741;28;20213;-88
2022/01/16 11:10:38;;;;;;;83.70;29.83;;;6.80;99.90;;;;;;4998659;28;20227;-88
2022/01/16 11:13:07;;;;;;;71.57;25.37;;;6.90;99.90;;;;;;5011785;28;20678;-87
2022/01/16 11:15:35;;;;;;;62.07;21.90;;;7.70;99.90;;;;;;5001412;28;20714;-87
2022/01/16 11:18:11;;;;;;;80.63;29.70;;;7.50;99.90;;;;;;5005935;28;20371;-88
2022/01/16 11:20:40;;;;;;;76.50;29.40;;;7.10;99.90;;;;;;5001706;28;20214;-88
2022/01/16 11:23:16;;;;;;;89.10;29.97;;;7.10;99.90;;;;;;4993784;28;20215;-88
2022/01/16 11:25:45;;;;;;;80.87;28.50;;;7.10;99.90;;;;;;4995798;28;20316;-89
2022/01/16 11:28:14;;;;;;;80.17;29.17;;;7.20;99.90;;;;;;5002685;28;20233;-88
2022/01/16 11:30:46;;;;;;;89.07;29.07;;;7.30;99.90;;;;;;4990666;28;20206;-88
2022/01/16 11:33:15;;;;;;;93.60;31.07;;;7.30;99.90;;;;;;4994194;28;20235;-87
2022/01/16 11:35:45;;;;;;;80.07;29.30;;;7.30;99.90;;;;;;5011545;28;20285;-88
2022/01/16 11:38:13;;;;;;;84.67;29.33;;;7.40;99.90;;;;;;5013832;28;20212;-88
2022/01/16 11:40:46;;;;;;;83.20;31.03;;;7.40;99.90;;;;;;4994307;28;20223;-87
2022/01/16 11:43:35;;;;;;;78.83;25.10;;;7.50;99.90;;;;;;4993999;28;20244;-88
2022/01/16 11:46:14;;;;;;;83.30;29.43;;;7.60;99.90;;;;;;4994718;28;20217;-88
2022/01/16 11:48:46;;;;;;;84.23;28.43;;;7.60;99.90;;;;;;4996203;28;20710;-87
2022/01/16 11:52:05;;;;;;;75.30;29.63;;;7.80;99.90;;;;;;4996456;28;20297;-89
2022/01/16 11:54:40;;;;;;;81.40;29.13;;;7.90;99.90;;;;;;4991411;28;20345;-88
2022/01/16 11:57:21;;;;;;;77.10;25.33;;;7.90;99.90;;;;;;5000902;28;20278;-88
2022/01/16 11:59:50;;;;;;;73.90;26.70;;;7.90;99.90;;;;;;4992837;28;20213;-87
2022/01/16 12:02:22;;;;;;;83.93;29.17;;;8.50;99.90;;;;;;4996052;28;20221;-88
2022/01/16 12:05:04;;;;;;;87.30;31.17;;;8.20;99.90;;;;;;5011439;28;20229;-88
2022/01/16 12:07:54;;;;;;;84.40;30.40;;;8.40;99.90;;;;;;4993993;28;20245;-87
2022/01/16 12:10:57;;;;;;;75.63;27.77;;;8.70;99.90;;;;;;4997161;28;20221;-88
2022/01/16 12:14:00;;;;;;;74.43;28.77;;;9.10;99.90;;;;;;4986649;28;20307;-88
2022/01/16 12:16:40;;;;;;;76.50;27.80;;;9.10;99.90;;;;;;4991164;28;20748;-87
2022/01/16 12:19:47;;;;;;;58.30;23.70;;;9.30;99.90;;;;;;4991867;28;20217;-88
2022/01/16 12:22:19;;;;;;;70.83;23.50;;;9.30;99.90;;;;;;5007298;28;20300;-88
2022/01/16 12:24:49;;;;;;;61.87;23.90;;;9.10;99.90;;;;;;4994789;28;20239;-90
2022/01/16 12:27:44;;;;;;;64.27;22.07;;;9.10;99.90;;;;;;4993632;28;20225;-87
2022/01/16 12:30:33;;;;;;;49.57;17.93;;;9.00;99.90;;;;;;5008962;28;20220;-88
2022/01/16 12:33:25;;;;;;;70.00;24.53;;;8.80;99.90;;;;;;5017756;28;20241;-88
2022/01/16 12:36:10;;;;;;;69.77;23.47;;;8.80;99.90;;;;;;5003001;28;20200;-88
2022/01/16 12:39:00;;;;;;;59.30;20.73;;;8.90;99.90;;;;;;5025118;28;20873;-87
2022/01/16 12:41:30;;;;;;;72.83;26.17;;;8.80;99.90;;;;;;4988256;28;20253;-87
2022/01/16 12:44:00;;;;;;;72.27;25.27;;;8.80;99.90;;;;;;4991476;28;20246;-86
2022/01/16 12:46:31;;;;;;;80.33;26.30;;;8.90;99.90;;;;;;4996363;28;20219;-86
2022/01/16 12:49:02;;;;;;;64.13;20.90;;;8.90;99.90;;;;;;5016239;28;20850;-86
2022/01/16 12:51:31;;;;;;;69.50;24.67;;;8.90;99.90;;;;;;5011153;28;20208;-87
2022/01/16 12:54:02;;;;;;;71.73;26.10;;;8.80;99.90;;;;;;4997190;28;20316;-86
2022/01/16 12:56:32;;;;;;;60.47;19.30;;;8.70;99.90;;;;;;5009396;28;20294;-86
2022/01/16 12:59:09;;;;;;;75.03;26.30;;;8.70;99.90;;;;;;4987870;28;20225;-86
2022/01/16 13:01:36;;;;;;;59.97;16.17;;;8.70;99.90;;;;;;5006288;28;20547;-87
2022/01/16 13:04:04;;;;;;;68.43;21.77;;;8.50;99.90;;;;;;5009448;28;20224;-87
2022/01/16 13:06:32;;;;;;;67.70;23.80;;;8.40;99.90;;;;;;4990616;28;20249;-87
2022/01/16 13:09:04;;;;;;;72.53;24.63;;;8.40;99.90;;;;;;4992758;28;20211;-87
2022/01/16 13:11:34;;;;;;;60.80;22.00;;;8.40;99.90;;;;;;4996228;28;20447;-86
2022/01/16 13:14:01;;;;;;;54.27;19.10;;;8.30;99.90;;;;;;4996912;28;20755;-86
2022/01/16 13:16:30;;;;;;;66.83;22.57;;;8.20;99.90;;;;;;4994352;28;20215;-86
2022/01/16 13:19:02;;;;;;;66.90;21.87;;;8.10;99.90;;;;;;4992950;28;20221;-87
2022/01/16 13:21:39;;;;;;;69.63;24.03;;;8.30;99.90;;;;;;4993380;28;20217;-87
2022/01/16 13:24:07;;;;;;;67.07;20.77;;;8.40;99.90;;;;;;4991053;28;20231;-88
2022/01/16 13:26:35;;;;;;;64.53;22.30;;;8.00;99.90;;;;;;4991687;28;20228;-87
2022/01/16 13:29:04;;;;;;;59.77;21.00;;;8.40;99.90;;;;;;4997228;28;20214;-87
2022/01/16 13:31:33;;;;;;;62.97;22.17;;;7.90;99.90;;;;;;4993097;28;20221;-87